sensor_id;sensor_type;location;lat;lon;timestamp;temperature;humidity
60309;DHT22;50313;52.894;6.492;2022-08-23T00:00:45;16.20;99.90
60309;DHT22;50313;52.894;6.492;2022-08-23T00:03:11;16.20;99.90
60309;DHT22;50313;52.894;6.492;2022-08-23T00:05:38;16.10;99.90
60309;DHT22;50313;52.894;6.492;2022-08-23T00:08:04;16.10;99.90
60309;DHT22;50313;52.894;6.492;2022-08-23T00:10:31;16.00;99.90
60309;DHT22;50313;52.894;6.492;2022-08-23T00:12:57;16.00;99.90
60309;DHT22;50313;52.894;6.492;2022-08-23T00:15:23;16.00;99.90
60309;DHT22;50313;52.894;6.492;2022-08-23T00:17:52;16.00;99.90
60309;DHT22;50313;52.894;6.492;2022-08-23T00:20:23;15.90;99.90
60309;DHT22;50313;52.894;6.492;2022-08-23T00:22:49;15.90;99.90
60309;DHT22;50313;52.894;6.492;2022-08-23T00:25:15;15.80;99.90
60309;DHT22;50313;52.894;6.492;2022-08-23T00:27:43;15.80;99.90
60309;DHT22;50313;52.894;6.492;2022-08-23T00:30:11;15.80;99.90
60309;DHT22;50313;52.894;6.492;2022-08-23T00:32:38;15.70;99.90
60309;DHT22;50313;52.894;6.492;2022-08-23T00:35:06;15.70;99.90
60309;DHT22;50313;52.894;6.492;2022-08-23T00:37:32;15.70;99.90
60309;DHT22;50313;52.894;6.492;2022-08-23T00:40:02;15.70;99.90
60309;DHT22;50313;52.894;6.492;2022-08-23T00:42:53;15.70;99.90
60309;DHT22;50313;52.894;6.492;2022-08-23T00:45:46;15.60;99.90
60309;DHT22;50313;52.894;6.492;2022-08-23T00:48:33;15.60;99.90
60309;DHT22;50313;52.894;6.492;2022-08-23T00:53:36;15.50;99.90
60309;DHT22;50313;52.894;6.492;2022-08-23T00:56:10;15.50;99.90
60309;DHT22;50313;52.894;6.492;2022-08-23T00:58:37;15.50;99.90
60309;DHT22;50313;52.894;6.492;2022-08-23T01:01:04;15.40;99.90
60309;DHT22;50313;52.894;6.492;2022-08-23T01:03:35;15.40;99.90
60309;DHT22;50313;52.894;6.492;2022-08-23T01:06:20;15.40;99.90
60309;DHT22;50313;52.894;6.492;2022-08-23T01:08:51;15.40;99.90
60309;DHT22;50313;52.894;6.492;2022-08-23T01:11:31;15.50;99.90
60309;DHT22;50313;52.894;6.492;2022-08-23T01:14:11;15.40;99.90
60309;DHT22;50313;52.894;6.492;2022-08-23T01:19:35;15.40;99.90
60309;DHT22;50313;52.894;6.492;2022-08-23T01:22:10;15.30;99.90
60309;DHT22;50313;52.894;6.492;2022-08-23T01:24:38;15.30;99.90
60309;DHT22;50313;52.894;6.492;2022-08-23T01:27:05;15.30;99.90
60309;DHT22;50313;52.894;6.492;2022-08-23T01:29:31;15.20;99.90
60309;DHT22;50313;52.894;6.492;2022-08-23T01:31:57;15.20;99.90
60309;DHT22;50313;52.894;6.492;2022-08-23T01:34:27;15.20;99.90
60309;DHT22;50313;52.894;6.492;2022-08-23T01:36:54;15.20;99.90
60309;DHT22;50313;52.894;6.492;2022-08-23T01:39:20;15.20;99.90
60309;DHT22;50313;52.894;6.492;2022-08-23T01:41:46;15.20;99.90
60309;DHT22;50313;52.894;6.492;2022-08-23T01:44:13;15.20;99.90
60309;DHT22;50313;52.894;6.492;2022-08-23T01:46:43;15.20;99.90
60309;DHT22;50313;52.894;6.492;2022-08-23T01:49:10;15.20;99.90
60309;DHT22;50313;52.894;6.492;2022-08-23T01:51:37;15.20;99.90
60309;DHT22;50313;52.894;6.492;2022-08-23T01:54:03;15.20;99.90
60309;DHT22;50313;52.894;6.492;2022-08-23T01:56:30;15.10;99.90
60309;DHT22;50313;52.894;6.492;2022-08-23T01:58:57;15.10;99.90
60309;DHT22;50313;52.894;6.492;2022-08-23T02:01:27;15.20;99.90
60309;DHT22;50313;52.894;6.492;2022-08-23T02:03:53;15.10;99.90
60309;DHT22;50313;52.894;6.492;2022-08-23T02:06:18;15.20;99.90
60309;DHT22;50313;52.894;6.492;2022-08-23T02:08:46;15.20;99.90
60309;DHT22;50313;52.894;6.492;2022-08-23T02:11:30;15.10;99.90
60309;DHT22;50313;52.894;6.492;2022-08-23T02:13:58;15.00;99.90
60309;DHT22;50313;52.894;6.492;2022-08-23T02:16:30;15.00;99.90
60309;DHT22;50313;52.894;6.492;2022-08-23T02:18:59;15.00;99.90
60309;DHT22;50313;52.894;6.492;2022-08-23T02:21:29;14.90;99.90
60309;DHT22;50313;52.894;6.492;2022-08-23T02:24:08;14.90;99.90
60309;DHT22;50313;52.894;6.492;2022-08-23T02:26:36;14.90;99.90
60309;DHT22;50313;52.894;6.492;2022-08-23T02:29:03;14.90;99.90
60309;DHT22;50313;52.894;6.492;2022-08-23T02:31:29;14.90;99.90
60309;DHT22;50313;52.894;6.492;2022-08-23T02:33:54;14.80;99.90
60309;DHT22;50313;52.894;6.492;2022-08-23T02:36:20;14.80;99.90
60309;DHT22;50313;52.894;6.492;2022-08-23T02:38:46;14.80;99.90
60309;DHT22;50313;52.894;6.492;2022-08-23T02:41:12;14.80;99.90
60309;DHT22;50313;52.894;6.492;2022-08-23T02:43:38;14.80;99.90
60309;DHT22;50313;52.894;6.492;2022-08-23T02:46:07;14.70;99.90
60309;DHT22;50313;52.894;6.492;2022-08-23T02:48:33;14.70;99.90
60309;DHT22;50313;52.894;6.492;2022-08-23T02:51:01;14.60;99.90
60309;DHT22;50313;52.894;6.492;2022-08-23T02:53:29;14.70;99.90
60309;DHT22;50313;52.894;6.492;2022-08-23T02:55:56;14.70;99.90
60309;DHT22;50313;52.894;6.492;2022-08-23T02:58:27;14.70;99.90
60309;DHT22;50313;52.894;6.492;2022-08-23T03:00:53;14.80;99.90
60309;DHT22;50313;52.894;6.492;2022-08-23T03:03:20;14.70;99.90
60309;DHT22;50313;52.894;6.492;2022-08-23T03:05:46;14.70;99.90
60309;DHT22;50313;52.894;6.492;2022-08-23T03:08:13;14.70;99.90
60309;DHT22;50313;52.894;6.492;2022-08-23T03:10:44;14.60;99.90
60309;DHT22;50313;52.894;6.492;2022-08-23T03:13:10;14.60;99.90
60309;DHT22;50313;52.894;6.492;2022-08-23T03:15:37;14.50;99.90
60309;DHT22;50313;52.894;6.492;2022-08-23T03:18:04;14.60;99.90
60309;DHT22;50313;52.894;6.492;2022-08-23T03:20:30;14.50;99.90
60309;DHT22;50313;52.894;6.492;2022-08-23T03:22:56;14.50;99.90
60309;DHT22;50313;52.894;6.492;2022-08-23T03:25:22;14.40;99.90
60309;DHT22;50313;52.894;6.492;2022-08-23T03:27:48;14.40;99.90
60309;DHT22;50313;52.894;6.492;2022-08-23T03:30:16;14.30;99.90
60309;DHT22;50313;52.894;6.492;2022-08-23T03:32:42;14.30;99.90
60309;DHT22;50313;52.894;6.492;2022-08-23T03:35:08;14.30;99.90
60309;DHT22;50313;52.894;6.492;2022-08-23T03:37:34;14.30;99.90
60309;DHT22;50313;52.894;6.492;2022-08-23T03:40:00;14.20;99.90
60309;DHT22;50313;52.894;6.492;2022-08-23T03:42:26;14.20;99.90
60309;DHT22;50313;52.894;6.492;2022-08-23T03:44:52;14.10;99.90
60309;DHT22;50313;52.894;6.492;2022-08-23T03:47:18;14.10;99.90
60309;DHT22;50313;52.894;6.492;2022-08-23T03:49:44;14.00;99.90
60309;DHT22;50313;52.894;6.492;2022-08-23T03:52:09;14.00;99.90
60309;DHT22;50313;52.894;6.492;2022-08-23T03:54:37;14.00;99.90
60309;DHT22;50313;52.894;6.492;2022-08-23T03:57:05;14.00;99.90
60309;DHT22;50313;52.894;6.492;2022-08-23T03:59:33;14.00;99.90
60309;DHT22;50313;52.894;6.492;2022-08-23T04:01:59;14.20;99.90
60309;DHT22;50313;52.894;6.492;2022-08-23T04:04:25;14.20;99.90
60309;DHT22;50313;52.894;6.492;2022-08-23T04:06:54;14.30;99.90
60309;DHT22;50313;52.894;6.492;2022-08-23T04:09:21;14.30;99.90
60309;DHT22;50313;52.894;6.492;2022-08-23T04:11:47;14.30;99.90
60309;DHT22;50313;52.894;6.492;2022-08-23T04:14:13;14.30;99.90
60309;DHT22;50313;52.894;6.492;2022-08-23T04:16:40;14.40;99.90
60309;DHT22;50313;52.894;6.492;2022-08-23T04:19:31;14.30;99.90
60309;DHT22;50313;52.894;6.492;2022-08-23T04:22:16;14.30;99.90
60309;DHT22;50313;52.894;6.492;2022-08-23T04:24:43;14.30;99.90
60309;DHT22;50313;52.894;6.492;2022-08-23T04:27:09;14.30;99.90
60309;DHT22;50313;52.894;6.492;2022-08-23T04:29:35;14.30;99.90
60309;DHT22;50313;52.894;6.492;2022-08-23T04:32:03;14.40;99.90
60309;DHT22;50313;52.894;6.492;2022-08-23T04:34:30;14.40;99.90
60309;DHT22;50313;52.894;6.492;2022-08-23T04:36:58;14.40;99.90
60309;DHT22;50313;52.894;6.492;2022-08-23T04:39:25;14.40;99.90
60309;DHT22;50313;52.894;6.492;2022-08-23T04:41:51;14.40;99.90
60309;DHT22;50313;52.894;6.492;2022-08-23T04:44:38;14.40;99.90
60309;DHT22;50313;52.894;6.492;2022-08-23T04:47:04;14.40;99.90
60309;DHT22;50313;52.894;6.492;2022-08-23T04:49:29;14.30;99.90
60309;DHT22;50313;52.894;6.492;2022-08-23T04:51:55;14.40;99.90
60309;DHT22;50313;52.894;6.492;2022-08-23T04:54:21;14.40;99.90
60309;DHT22;50313;52.894;6.492;2022-08-23T04:56:47;14.40;99.90
60309;DHT22;50313;52.894;6.492;2022-08-23T04:59:13;14.40;99.90
60309;DHT22;50313;52.894;6.492;2022-08-23T05:01:39;14.30;99.90
60309;DHT22;50313;52.894;6.492;2022-08-23T05:04:09;14.30;99.90
60309;DHT22;50313;52.894;6.492;2022-08-23T05:06:35;14.30;99.90
60309;DHT22;50313;52.894;6.492;2022-08-23T05:09:02;14.30;99.90
60309;DHT22;50313;52.894;6.492;2022-08-23T05:11:28;14.40;99.90
60309;DHT22;50313;52.894;6.492;2022-08-23T05:13:54;14.40;99.90
60309;DHT22;50313;52.894;6.492;2022-08-23T05:16:21;14.50;99.90
60309;DHT22;50313;52.894;6.492;2022-08-23T05:18:47;14.60;99.90
60309;DHT22;50313;52.894;6.492;2022-08-23T05:21:15;14.70;99.90
60309;DHT22;50313;52.894;6.492;2022-08-23T05:23:41;14.70;99.90
60309;DHT22;50313;52.894;6.492;2022-08-23T05:26:20;14.80;99.90
60309;DHT22;50313;52.894;6.492;2022-08-23T05:28:47;14.80;99.90
60309;DHT22;50313;52.894;6.492;2022-08-23T05:31:23;14.90;99.90
60309;DHT22;50313;52.894;6.492;2022-08-23T05:33:50;14.90;99.90
60309;DHT22;50313;52.894;6.492;2022-08-23T05:36:17;15.00;99.90
60309;DHT22;50313;52.894;6.492;2022-08-23T05:38:43;15.20;99.90
60309;DHT22;50313;52.894;6.492;2022-08-23T05:41:11;15.20;99.90
60309;DHT22;50313;52.894;6.492;2022-08-23T05:43:40;15.30;99.90
60309;DHT22;50313;52.894;6.492;2022-08-23T05:46:15;15.40;99.90
60309;DHT22;50313;52.894;6.492;2022-08-23T05:48:42;15.40;99.90
60309;DHT22;50313;52.894;6.492;2022-08-23T05:51:15;15.40;99.90
60309;DHT22;50313;52.894;6.492;2022-08-23T05:53:42;15.40;99.90
60309;DHT22;50313;52.894;6.492;2022-08-23T05:56:14;15.50;99.90
60309;DHT22;50313;52.894;6.492;2022-08-23T05:58:41;15.60;99.90
60309;DHT22;50313;52.894;6.492;2022-08-23T06:01:10;15.70;99.90
60309;DHT22;50313;52.894;6.492;2022-08-23T06:03:36;15.80;99.90
60309;DHT22;50313;52.894;6.492;2022-08-23T06:06:02;15.80;99.90
60309;DHT22;50313;52.894;6.492;2022-08-23T06:08:29;16.00;99.90
60309;DHT22;50313;52.894;6.492;2022-08-23T06:10:59;16.10;99.90
60309;DHT22;50313;52.894;6.492;2022-08-23T06:13:26;16.30;99.90
60309;DHT22;50313;52.894;6.492;2022-08-23T06:15:52;16.50;99.90
60309;DHT22;50313;52.894;6.492;2022-08-23T06:18:20;16.40;99.90
60309;DHT22;50313;52.894;6.492;2022-08-23T06:20:46;16.60;99.90
60309;DHT22;50313;52.894;6.492;2022-08-23T06:23:12;16.70;99.90
60309;DHT22;50313;52.894;6.492;2022-08-23T06:25:41;16.80;99.90
60309;DHT22;50313;52.894;6.492;2022-08-23T06:28:10;17.10;99.90
60309;DHT22;50313;52.894;6.492;2022-08-23T06:30:40;17.20;99.90
60309;DHT22;50313;52.894;6.492;2022-08-23T06:33:06;17.30;99.90
60309;DHT22;50313;52.894;6.492;2022-08-23T06:35:32;17.50;99.90
60309;DHT22;50313;52.894;6.492;2022-08-23T06:38:00;17.60;99.90
60309;DHT22;50313;52.894;6.492;2022-08-23T06:40:38;17.70;99.90
60309;DHT22;50313;52.894;6.492;2022-08-23T06:43:04;17.70;99.90
60309;DHT22;50313;52.894;6.492;2022-08-23T06:45:30;17.90;99.90
60309;DHT22;50313;52.894;6.492;2022-08-23T06:48:00;18.00;99.90
60309;DHT22;50313;52.894;6.492;2022-08-23T06:50:28;18.10;99.90
60309;DHT22;50313;52.894;6.492;2022-08-23T06:52:54;18.20;99.90
60309;DHT22;50313;52.894;6.492;2022-08-23T06:55:20;18.40;99.90
60309;DHT22;50313;52.894;6.492;2022-08-23T06:57:47;18.50;99.90
60309;DHT22;50313;52.894;6.492;2022-08-23T07:00:16;18.50;99.90
60309;DHT22;50313;52.894;6.492;2022-08-23T07:03:06;18.70;99.90
60309;DHT22;50313;52.894;6.492;2022-08-23T07:05:37;18.80;99.90
60309;DHT22;50313;52.894;6.492;2022-08-23T07:08:26;18.90;99.90
60309;DHT22;50313;52.894;6.492;2022-08-23T07:11:00;18.80;99.90
60309;DHT22;50313;52.894;6.492;2022-08-23T07:13:26;19.00;99.90
60309;DHT22;50313;52.894;6.492;2022-08-23T07:16:01;19.10;99.90
60309;DHT22;50313;52.894;6.492;2022-08-23T07:18:28;19.20;99.90
60309;DHT22;50313;52.894;6.492;2022-08-23T07:20:58;19.50;99.90
60309;DHT22;50313;52.894;6.492;2022-08-23T07:23:25;19.60;99.90
60309;DHT22;50313;52.894;6.492;2022-08-23T07:25:55;19.70;99.90
60309;DHT22;50313;52.894;6.492;2022-08-23T07:28:22;19.80;99.90
60309;DHT22;50313;52.894;6.492;2022-08-23T07:30:47;19.80;99.90
60309;DHT22;50313;52.894;6.492;2022-08-23T07:33:13;19.90;99.90
60309;DHT22;50313;52.894;6.492;2022-08-23T07:35:48;19.90;99.90
60309;DHT22;50313;52.894;6.492;2022-08-23T07:38:15;19.90;99.90
60309;DHT22;50313;52.894;6.492;2022-08-23T07:40:42;20.00;99.90
60309;DHT22;50313;52.894;6.492;2022-08-23T07:43:07;20.10;99.90
60309;DHT22;50313;52.894;6.492;2022-08-23T07:45:37;20.20;99.90
60309;DHT22;50313;52.894;6.492;2022-08-23T07:48:04;20.20;99.90
60309;DHT22;50313;52.894;6.492;2022-08-23T07:50:30;20.30;99.90
60309;DHT22;50313;52.894;6.492;2022-08-23T07:52:59;20.40;99.90
60309;DHT22;50313;52.894;6.492;2022-08-23T07:55:28;20.40;99.90
60309;DHT22;50313;52.894;6.492;2022-08-23T07:57:56;20.50;99.90
60309;DHT22;50313;52.894;6.492;2022-08-23T08:00:22;20.40;99.90
60309;DHT22;50313;52.894;6.492;2022-08-23T08:02:47;20.40;99.90
60309;DHT22;50313;52.894;6.492;2022-08-23T08:05:13;20.40;99.90
60309;DHT22;50313;52.894;6.492;2022-08-23T08:07:39;20.60;99.90
60309;DHT22;50313;52.894;6.492;2022-08-23T08:10:06;20.80;99.90
60309;DHT22;50313;52.894;6.492;2022-08-23T08:12:31;20.90;99.90
60309;DHT22;50313;52.894;6.492;2022-08-23T08:14:57;21.10;99.90
60309;DHT22;50313;52.894;6.492;2022-08-23T08:17:24;21.20;99.90
60309;DHT22;50313;52.894;6.492;2022-08-23T08:19:49;21.50;99.90
60309;DHT22;50313;52.894;6.492;2022-08-23T08:22:15;21.60;99.90
60309;DHT22;50313;52.894;6.492;2022-08-23T08:24:41;21.80;99.90
60309;DHT22;50313;52.894;6.492;2022-08-23T08:27:07;21.90;99.90
60309;DHT22;50313;52.894;6.492;2022-08-23T08:29:33;22.20;99.90
60309;DHT22;50313;52.894;6.492;2022-08-23T08:31:59;22.40;99.90
60309;DHT22;50313;52.894;6.492;2022-08-23T08:34:25;22.60;99.90
60309;DHT22;50313;52.894;6.492;2022-08-23T08:36:53;22.60;99.90
60309;DHT22;50313;52.894;6.492;2022-08-23T08:39:26;22.60;99.90
60309;DHT22;50313;52.894;6.492;2022-08-23T08:44:44;23.10;99.90
60309;DHT22;50313;52.894;6.492;2022-08-23T08:47:36;23.50;99.90
60309;DHT22;50313;52.894;6.492;2022-08-23T08:50:24;23.60;99.90
60309;DHT22;50313;52.894;6.492;2022-08-23T08:53:09;23.60;99.90
60309;DHT22;50313;52.894;6.492;2022-08-23T08:55:41;23.70;99.90
60309;DHT22;50313;52.894;6.492;2022-08-23T08:58:20;23.60;99.90
60309;DHT22;50313;52.894;6.492;2022-08-23T09:00:47;23.70;99.90
60309;DHT22;50313;52.894;6.492;2022-08-23T09:03:15;23.80;99.90
60309;DHT22;50313;52.894;6.492;2022-08-23T09:05:53;23.90;99.90
60309;DHT22;50313;52.894;6.492;2022-08-23T09:10:50;24.10;99.90
60309;DHT22;50313;52.894;6.492;2022-08-23T09:13:34;24.10;99.90
60309;DHT22;50313;52.894;6.492;2022-08-23T09:16:23;24.40;99.90
60309;DHT22;50313;52.894;6.492;2022-08-23T09:18:53;24.40;99.90
60309;DHT22;50313;52.894;6.492;2022-08-23T09:21:19;24.50;99.90
60309;DHT22;50313;52.894;6.492;2022-08-23T09:23:48;24.50;99.90
60309;DHT22;50313;52.894;6.492;2022-08-23T09:26:22;24.50;99.90
60309;DHT22;50313;52.894;6.492;2022-08-23T09:28:51;24.80;99.90
60309;DHT22;50313;52.894;6.492;2022-08-23T09:31:43;24.80;99.90
60309;DHT22;50313;52.894;6.492;2022-08-23T09:34:47;24.90;99.90
60309;DHT22;50313;52.894;6.492;2022-08-23T09:37:15;25.00;99.30
60309;DHT22;50313;52.894;6.492;2022-08-23T09:39:46;25.20;99.90
60309;DHT22;50313;52.894;6.492;2022-08-23T09:42:37;25.20;98.10
60309;DHT22;50313;52.894;6.492;2022-08-23T09:45:06;25.20;97.70
60309;DHT22;50313;52.894;6.492;2022-08-23T09:47:48;25.40;97.60
60309;DHT22;50313;52.894;6.492;2022-08-23T09:53:01;25.50;96.70
60309;DHT22;50313;52.894;6.492;2022-08-23T09:55:40;25.50;97.20
60309;DHT22;50313;52.894;6.492;2022-08-23T09:58:37;25.60;95.70
60309;DHT22;50313;52.894;6.492;2022-08-23T10:01:13;25.80;95.50
60309;DHT22;50313;52.894;6.492;2022-08-23T10:03:43;25.90;96.50
60309;DHT22;50313;52.894;6.492;2022-08-23T10:06:13;25.90;95.60
60309;DHT22;50313;52.894;6.492;2022-08-23T10:08:57;26.00;95.60
60309;DHT22;50313;52.894;6.492;2022-08-23T10:11:42;26.20;95.80
60309;DHT22;50313;52.894;6.492;2022-08-23T10:14:15;26.20;94.80
60309;DHT22;50313;52.894;6.492;2022-08-23T10:25:04;26.80;94.40
60309;DHT22;50313;52.894;6.492;2022-08-23T10:30:59;26.70;93.30
60309;DHT22;50313;52.894;6.492;2022-08-23T10:33:48;26.70;93.60
60309;DHT22;50313;52.894;6.492;2022-08-23T10:36:40;26.80;93.20
60309;DHT22;50313;52.894;6.492;2022-08-23T10:39:30;26.90;94.30
60309;DHT22;50313;52.894;6.492;2022-08-23T10:42:08;26.90;93.50
60309;DHT22;50313;52.894;6.492;2022-08-23T10:50:14;27.30;92.80
60309;DHT22;50313;52.894;6.492;2022-08-23T10:53:00;27.40;92.40
60309;DHT22;50313;52.894;6.492;2022-08-23T10:55:57;27.50;92.10
60309;DHT22;50313;52.894;6.492;2022-08-23T11:08:42;28.00;91.30
60309;DHT22;50313;52.894;6.492;2022-08-23T11:23:54;28.10;88.80
60309;DHT22;50313;52.894;6.492;2022-08-23T11:38:02;28.50;88.20
60309;DHT22;50313;52.894;6.492;2022-08-23T12:02:39;29.20;85.70
60309;DHT22;50313;52.894;6.492;2022-08-23T12:21:30;30.10;85.00
60309;DHT22;50313;52.894;6.492;2022-08-23T12:24:00;30.00;83.40
60309;DHT22;50313;52.894;6.492;2022-08-23T12:26:52;30.20;83.50
60309;DHT22;50313;52.894;6.492;2022-08-23T12:32:14;30.10;82.30
60309;DHT22;50313;52.894;6.492;2022-08-23T12:38:15;29.90;81.10
60309;DHT22;50313;52.894;6.492;2022-08-23T12:40:42;29.60;80.40
60309;DHT22;50313;52.894;6.492;2022-08-23T12:43:22;29.60;80.70
60309;DHT22;50313;52.894;6.492;2022-08-23T12:45:57;29.70;81.70
60309;DHT22;50313;52.894;6.492;2022-08-23T12:48:27;29.60;81.80
60309;DHT22;50313;52.894;6.492;2022-08-23T12:51:00;29.60;82.90
60309;DHT22;50313;52.894;6.492;2022-08-23T12:53:29;29.70;83.70
60309;DHT22;50313;52.894;6.492;2022-08-23T12:56:26;29.60;80.50
60309;DHT22;50313;52.894;6.492;2022-08-23T12:58:58;29.30;81.00
60309;DHT22;50313;52.894;6.492;2022-08-23T13:01:27;29.20;81.30
60309;DHT22;50313;52.894;6.492;2022-08-23T13:03:57;29.30;82.20
60309;DHT22;50313;52.894;6.492;2022-08-23T13:06:27;29.40;80.60
60309;DHT22;50313;52.894;6.492;2022-08-23T13:09:05;29.40;81.00
60309;DHT22;50313;52.894;6.492;2022-08-23T13:11:33;29.30;81.50
60309;DHT22;50313;52.894;6.492;2022-08-23T13:14:24;29.30;81.50
60309;DHT22;50313;52.894;6.492;2022-08-23T13:16:50;29.30;79.80
60309;DHT22;50313;52.894;6.492;2022-08-23T13:19:25;29.30;81.30
60309;DHT22;50313;52.894;6.492;2022-08-23T13:22:32;29.20;78.90
60309;DHT22;50313;52.894;6.492;2022-08-23T13:24:58;29.30;80.70
60309;DHT22;50313;52.894;6.492;2022-08-23T13:27:28;29.30;79.70
60309;DHT22;50313;52.894;6.492;2022-08-23T13:30:00;29.30;79.20
60309;DHT22;50313;52.894;6.492;2022-08-23T13:32:36;29.50;79.40
60309;DHT22;50313;52.894;6.492;2022-08-23T13:37:52;29.60;78.10
60309;DHT22;50313;52.894;6.492;2022-08-23T13:40:25;29.70;77.60
60309;DHT22;50313;52.894;6.492;2022-08-23T13:43:04;29.90;77.10
60309;DHT22;50313;52.894;6.492;2022-08-23T13:45:35;30.10;77.50
60309;DHT22;50313;52.894;6.492;2022-08-23T13:50:34;30.30;76.70
60309;DHT22;50313;52.894;6.492;2022-08-23T13:53:01;30.30;78.00
60309;DHT22;50313;52.894;6.492;2022-08-23T13:55:27;30.50;77.80
60309;DHT22;50313;52.894;6.492;2022-08-23T13:57:55;30.80;77.10
60309;DHT22;50313;52.894;6.492;2022-08-23T14:00:22;30.70;76.10
60309;DHT22;50313;52.894;6.492;2022-08-23T14:02:48;31.10;76.40
60309;DHT22;50313;52.894;6.492;2022-08-23T14:05:17;31.50;76.00
60309;DHT22;50313;52.894;6.492;2022-08-23T14:07:45;31.80;75.40
60309;DHT22;50313;52.894;6.492;2022-08-23T14:10:12;31.90;75.20
60309;DHT22;50313;52.894;6.492;2022-08-23T14:12:39;31.90;74.10
60309;DHT22;50313;52.894;6.492;2022-08-23T14:15:07;31.90;74.00
60309;DHT22;50313;52.894;6.492;2022-08-23T14:17:39;31.80;72.90
60309;DHT22;50313;52.894;6.492;2022-08-23T14:20:06;31.60;72.70
60309;DHT22;50313;52.894;6.492;2022-08-23T14:22:33;31.60;72.70
60309;DHT22;50313;52.894;6.492;2022-08-23T14:24:59;31.90;74.30
60309;DHT22;50313;52.894;6.492;2022-08-23T14:27:25;31.70;72.50
60309;DHT22;50313;52.894;6.492;2022-08-23T14:29:50;31.50;73.80
60309;DHT22;50313;52.894;6.492;2022-08-23T14:32:16;31.50;73.10
60309;DHT22;50313;52.894;6.492;2022-08-23T14:34:42;31.80;75.40
60309;DHT22;50313;52.894;6.492;2022-08-23T14:37:08;32.20;74.00
60309;DHT22;50313;52.894;6.492;2022-08-23T14:39:33;32.40;73.90
60309;DHT22;50313;52.894;6.492;2022-08-23T14:41:59;31.90;72.80
60309;DHT22;50313;52.894;6.492;2022-08-23T14:44:25;32.00;71.60
60309;DHT22;50313;52.894;6.492;2022-08-23T14:46:50;32.40;71.90
60309;DHT22;50313;52.894;6.492;2022-08-23T14:49:16;32.20;72.80
60309;DHT22;50313;52.894;6.492;2022-08-23T14:51:45;32.70;72.20
60309;DHT22;50313;52.894;6.492;2022-08-23T14:54:17;32.50;71.80
60309;DHT22;50313;52.894;6.492;2022-08-23T14:56:43;32.20;70.30
60309;DHT22;50313;52.894;6.492;2022-08-23T14:59:09;32.10;71.40
60309;DHT22;50313;52.894;6.492;2022-08-23T15:01:35;32.50;72.10
60309;DHT22;50313;52.894;6.492;2022-08-23T15:04:02;32.50;70.20
60309;DHT22;50313;52.894;6.492;2022-08-23T15:06:28;32.00;69.70
60309;DHT22;50313;52.894;6.492;2022-08-23T15:08:54;31.90;70.90
60309;DHT22;50313;52.894;6.492;2022-08-23T15:11:20;31.90;71.10
60309;DHT22;50313;52.894;6.492;2022-08-23T15:13:46;32.10;71.10
60309;DHT22;50313;52.894;6.492;2022-08-23T15:16:15;32.20;72.20
60309;DHT22;50313;52.894;6.492;2022-08-23T15:18:45;31.90;69.40
60309;DHT22;50313;52.894;6.492;2022-08-23T15:21:12;32.10;71.20
60309;DHT22;50313;52.894;6.492;2022-08-23T15:23:39;32.20;69.70
60309;DHT22;50313;52.894;6.492;2022-08-23T15:26:06;32.10;70.30
60309;DHT22;50313;52.894;6.492;2022-08-23T15:28:32;32.10;71.10
60309;DHT22;50313;52.894;6.492;2022-08-23T15:30:58;32.50;70.10
60309;DHT22;50313;52.894;6.492;2022-08-23T15:33:25;32.80;70.30
60309;DHT22;50313;52.894;6.492;2022-08-23T15:35:52;33.00;69.00
60309;DHT22;50313;52.894;6.492;2022-08-23T15:38:21;33.20;68.60
60309;DHT22;50313;52.894;6.492;2022-08-23T15:40:48;33.40;68.70
60309;DHT22;50313;52.894;6.492;2022-08-23T15:43:14;32.90;67.80
60309;DHT22;50313;52.894;6.492;2022-08-23T15:45:40;32.90;68.50
60309;DHT22;50313;52.894;6.492;2022-08-23T15:48:29;32.30;68.20
60309;DHT22;50313;52.894;6.492;2022-08-23T15:50:57;32.70;67.80
60309;DHT22;50313;52.894;6.492;2022-08-23T15:53:23;32.40;66.70
60309;DHT22;50313;52.894;6.492;2022-08-23T15:55:51;32.80;67.90
60309;DHT22;50313;52.894;6.492;2022-08-23T15:58:23;32.80;66.80
60309;DHT22;50313;52.894;6.492;2022-08-23T16:00:49;32.80;67.90
60309;DHT22;50313;52.894;6.492;2022-08-23T16:03:16;32.50;67.60
60309;DHT22;50313;52.894;6.492;2022-08-23T16:05:45;32.50;67.40
60309;DHT22;50313;52.894;6.492;2022-08-23T16:08:24;32.90;66.80
60309;DHT22;50313;52.894;6.492;2022-08-23T16:10:51;32.90;66.20
60309;DHT22;50313;52.894;6.492;2022-08-23T16:13:17;32.90;68.00
60309;DHT22;50313;52.894;6.492;2022-08-23T16:15:43;32.40;65.10
60309;DHT22;50313;52.894;6.492;2022-08-23T16:18:09;32.00;65.80
60309;DHT22;50313;52.894;6.492;2022-08-23T16:20:36;31.90;68.10
60309;DHT22;50313;52.894;6.492;2022-08-23T16:23:02;31.30;68.80
60309;DHT22;50313;52.894;6.492;2022-08-23T16:25:28;30.80;70.10
60309;DHT22;50313;52.894;6.492;2022-08-23T16:27:53;30.40;70.30
60309;DHT22;50313;52.894;6.492;2022-08-23T16:30:19;30.10;71.30
60309;DHT22;50313;52.894;6.492;2022-08-23T16:32:45;29.80;71.50
60309;DHT22;50313;52.894;6.492;2022-08-23T16:35:11;29.50;72.10
60309;DHT22;50313;52.894;6.492;2022-08-23T16:37:37;29.20;72.40
60309;DHT22;50313;52.894;6.492;2022-08-23T16:40:05;29.00;73.50
60309;DHT22;50313;52.894;6.492;2022-08-23T16:42:32;29.10;73.80
60309;DHT22;50313;52.894;6.492;2022-08-23T16:44:57;29.70;73.90
60309;DHT22;50313;52.894;6.492;2022-08-23T16:47:23;30.10;72.90
60309;DHT22;50313;52.894;6.492;2022-08-23T16:49:49;30.30;73.40
60309;DHT22;50313;52.894;6.492;2022-08-23T16:52:15;30.50;74.20
60309;DHT22;50313;52.894;6.492;2022-08-23T16:54:42;30.50;74.40
60309;DHT22;50313;52.894;6.492;2022-08-23T16:57:08;30.50;74.90
60309;DHT22;50313;52.894;6.492;2022-08-23T16:59:34;30.60;74.90
60309;DHT22;50313;52.894;6.492;2022-08-23T17:02:02;30.60;74.70
60309;DHT22;50313;52.894;6.492;2022-08-23T17:04:29;30.30;74.70
60309;DHT22;50313;52.894;6.492;2022-08-23T17:06:56;30.00;74.90
60309;DHT22;50313;52.894;6.492;2022-08-23T17:09:23;29.80;75.50
60309;DHT22;50313;52.894;6.492;2022-08-23T17:11:50;29.30;76.40
60309;DHT22;50313;52.894;6.492;2022-08-23T17:14:17;29.00;75.70
60309;DHT22;50313;52.894;6.492;2022-08-23T17:16:43;28.70;76.80
60309;DHT22;50313;52.894;6.492;2022-08-23T17:19:10;28.50;78.60
60309;DHT22;50313;52.894;6.492;2022-08-23T17:21:37;28.10;79.90
60309;DHT22;50313;52.894;6.492;2022-08-23T17:24:03;28.00;81.30
60309;DHT22;50313;52.894;6.492;2022-08-23T17:26:29;27.80;81.70
60309;DHT22;50313;52.894;6.492;2022-08-23T17:28:54;27.70;81.80
60309;DHT22;50313;52.894;6.492;2022-08-23T17:31:21;27.50;81.00
60309;DHT22;50313;52.894;6.492;2022-08-23T17:33:47;27.40;82.00
60309;DHT22;50313;52.894;6.492;2022-08-23T17:36:34;27.10;83.10
60309;DHT22;50313;52.894;6.492;2022-08-23T17:39:08;27.00;83.90
60309;DHT22;50313;52.894;6.492;2022-08-23T17:41:35;26.90;84.10